sensor_id;sensor_type;location;lat;lon;timestamp;P1;durP1;ratioP1;P2;durP2;ratioP2
11100;SDS011;5604;50.722;7.078;2023-07-22T00:01:55;10.03;;;7.47;;
11100;SDS011;5604;50.722;7.078;2023-07-22T00:04:23;8.60;;;6.90;;
11100;SDS011;5604;50.722;7.078;2023-07-22T00:06:51;8.33;;;6.57;;
11100;SDS011;5604;50.722;7.078;2023-07-22T00:09:19;9.63;;;6.97;;
11100;SDS011;5604;50.722;7.078;2023-07-22T00:11:49;12.27;;;6.90;;
11100;SDS011;5604;50.722;7.078;2023-07-22T00:14:17;7.80;;;6.23;;
11100;SDS011;5604;50.722;7.078;2023-07-22T00:16:45;10.27;;;6.80;;
11100;SDS011;5604;50.722;7.078;2023-07-22T00:19:16;8.97;;;7.10;;
11100;SDS011;5604;50.722;7.078;2023-07-22T00:21:47;7.83;;;6.60;;
11100;SDS011;5604;50.722;7.078;2023-07-22T00:24:15;9.03;;;6.60;;
11100;SDS011;5604;50.722;7.078;2023-07-22T00:26:43;8.13;;;6.80;;
11100;SDS011;5604;50.722;7.078;2023-07-22T00:29:11;7.67;;;6.87;;
11100;SDS011;5604;50.722;7.078;2023-07-22T00:31:39;7.57;;;6.87;;
11100;SDS011;5604;50.722;7.078;2023-07-22T00:34:08;7.50;;;6.77;;
11100;SDS011;5604;50.722;7.078;2023-07-22T00:36:38;7.90;;;7.13;;
11100;SDS011;5604;50.722;7.078;2023-07-22T00:39:06;7.43;;;6.73;;
11100;SDS011;5604;50.722;7.078;2023-07-22T00:41:34;8.57;;;6.60;;
11100;SDS011;5604;50.722;7.078;2023-07-22T00:44:02;7.30;;;6.60;;
11100;SDS011;5604;50.722;7.078;2023-07-22T00:46:30;8.97;;;6.13;;
11100;SDS011;5604;50.722;7.078;2023-07-22T00:48:58;7.57;;;6.73;;
11100;SDS011;5604;50.722;7.078;2023-07-22T00:51:26;9.13;;;6.70;;
11100;SDS011;5604;50.722;7.078;2023-07-22T00:53:56;7.40;;;6.60;;
11100;SDS011;5604;50.722;7.078;2023-07-22T00:56:24;7.63;;;6.83;;
11100;SDS011;5604;50.722;7.078;2023-07-22T00:58:53;8.63;;;6.50;;
11100;SDS011;5604;50.722;7.078;2023-07-22T01:01:21;7.90;;;7.10;;
11100;SDS011;5604;50.722;7.078;2023-07-22T01:03:49;8.17;;;7.37;;
11100;SDS011;5604;50.722;7.078;2023-07-22T01:06:17;9.23;;;7.23;;
11100;SDS011;5604;50.722;7.078;2023-07-22T01:08:45;8.10;;;6.87;;
11100;SDS011;5604;50.722;7.078;2023-07-22T01:11:15;11.30;;;7.23;;
11100;SDS011;5604;50.722;7.078;2023-07-22T01:13:43;8.27;;;6.60;;
11100;SDS011;5604;50.722;7.078;2023-07-22T01:16:11;7.73;;;6.93;;
11100;SDS011;5604;50.722;7.078;2023-07-22T01:18:40;9.50;;;7.00;;
11100;SDS011;5604;50.722;7.078;2023-07-22T01:21:08;8.60;;;7.00;;
11100;SDS011;5604;50.722;7.078;2023-07-22T01:23:37;9.03;;;7.40;;
11100;SDS011;5604;50.722;7.078;2023-07-22T01:26:06;8.60;;;7.77;;
11100;SDS011;5604;50.722;7.078;2023-07-22T01:28:34;7.77;;;6.50;;
11100;SDS011;5604;50.722;7.078;2023-07-22T01:31:03;8.00;;;7.00;;
11100;SDS011;5604;50.722;7.078;2023-07-22T01:33:32;7.67;;;6.93;;
11100;SDS011;5604;50.722;7.078;2023-07-22T01:36:00;7.97;;;7.17;;
11100;SDS011;5604;50.722;7.078;2023-07-22T01:38:28;9.67;;;7.10;;
11100;SDS011;5604;50.722;7.078;2023-07-22T01:40:59;7.87;;;7.07;;
11100;SDS011;5604;50.722;7.078;2023-07-22T01:43:27;7.90;;;7.07;;
11100;SDS011;5604;50.722;7.078;2023-07-22T01:45:55;8.60;;;7.57;;
11100;SDS011;5604;50.722;7.078;2023-07-22T01:48:23;9.33;;;7.63;;
11100;SDS011;5604;50.722;7.078;2023-07-22T01:50:51;8.17;;;7.00;;
11100;SDS011;5604;50.722;7.078;2023-07-22T01:53:19;9.40;;;7.47;;
11100;SDS011;5604;50.722;7.078;2023-07-22T01:55:48;8.57;;;7.67;;
11100;SDS011;5604;50.722;7.078;2023-07-22T01:58:18;12.13;;;7.73;;
11100;SDS011;5604;50.722;7.078;2023-07-22T02:00:49;9.03;;;7.33;;
11100;SDS011;5604;50.722;7.078;2023-07-22T02:03:17;10.10;;;7.00;;
11100;SDS011;5604;50.722;7.078;2023-07-22T02:05:45;8.50;;;7.07;;
11100;SDS011;5604;50.722;7.078;2023-07-22T02:08:13;7.90;;;7.10;;
11100;SDS011;5604;50.722;7.078;2023-07-22T02:10:41;9.13;;;7.70;;
11100;SDS011;5604;50.722;7.078;2023-07-22T02:13:10;7.83;;;6.63;;
11100;SDS011;5604;50.722;7.078;2023-07-22T02:15:39;8.53;;;7.40;;
11100;SDS011;5604;50.722;7.078;2023-07-22T02:18:09;8.47;;;7.40;;
11100;SDS011;5604;50.722;7.078;2023-07-22T02:20:37;7.90;;;6.90;;
11100;SDS011;5604;50.722;7.078;2023-07-22T02:23:06;8.80;;;7.07;;
11100;SDS011;5604;50.722;7.078;2023-07-22T02:25:36;9.07;;;6.77;;
11100;SDS011;5604;50.722;7.078;2023-07-22T02:28:04;8.30;;;6.87;;
11100;SDS011;5604;50.722;7.078;2023-07-22T02:30:33;9.40;;;6.80;;
11100;SDS011;5604;50.722;7.078;2023-07-22T02:33:04;8.40;;;7.13;;
11100;SDS011;5604;50.722;7.078;2023-07-22T02:35:33;8.90;;;7.10;;
11100;SDS011;5604;50.722;7.078;2023-07-22T02:38:01;7.10;;;6.40;;
11100;SDS011;5604;50.722;7.078;2023-07-22T02:40:29;8.87;;;7.43;;
11100;SDS011;5604;50.722;7.078;2023-07-22T02:42:57;8.47;;;6.73;;
11100;SDS011;5604;50.722;7.078;2023-07-22T02:45:25;8.23;;;7.33;;
11100;SDS011;5604;50.722;7.078;2023-07-22T02:47:53;9.03;;;6.57;;
11100;SDS011;5604;50.722;7.078;2023-07-22T02:50:22;7.70;;;6.90;;
11100;SDS011;5604;50.722;7.078;2023-07-22T02:52:50;8.67;;;7.77;;
11100;SDS011;5604;50.722;7.078;2023-07-22T02:55:24;8.47;;;6.90;;
11100;SDS011;5604;50.722;7.078;2023-07-22T02:57:52;10.13;;;7.17;;
11100;SDS011;5604;50.722;7.078;2023-07-22T03:00:20;8.50;;;7.63;;
11100;SDS011;5604;50.722;7.078;2023-07-22T03:02:51;8.17;;;7.37;;
11100;SDS011;5604;50.722;7.078;2023-07-22T03:05:20;9.07;;;7.27;;
11100;SDS011;5604;50.722;7.078;2023-07-22T03:07:49;7.80;;;6.37;;
11100;SDS011;5604;50.722;7.078;2023-07-22T03:10:18;9.10;;;7.07;;
11100;SDS011;5604;50.722;7.078;2023-07-22T03:12:47;7.80;;;7.10;;
11100;SDS011;5604;50.722;7.078;2023-07-22T03:15:15;9.13;;;6.97;;
11100;SDS011;5604;50.722;7.078;2023-07-22T03:17:45;7.93;;;6.60;;
11100;SDS011;5604;50.722;7.078;2023-07-22T03:20:13;7.97;;;7.13;;
11100;SDS011;5604;50.722;7.078;2023-07-22T03:22:43;9.80;;;7.00;;
11100;SDS011;5604;50.722;7.078;2023-07-22T03:25:14;7.70;;;6.93;;
11100;SDS011;5604;50.722;7.078;2023-07-22T03:27:44;8.17;;;7.07;;
11100;SDS011;5604;50.722;7.078;2023-07-22T03:30:13;9.20;;;8.30;;
11100;SDS011;5604;50.722;7.078;2023-07-22T03:32:42;9.37;;;7.83;;
11100;SDS011;5604;50.722;7.078;2023-07-22T03:35:11;10.00;;;7.03;;
11100;SDS011;5604;50.722;7.078;2023-07-22T03:37:40;9.53;;;7.23;;
11100;SDS011;5604;50.722;7.078;2023-07-22T03:40:08;8.80;;;7.90;;
11100;SDS011;5604;50.722;7.078;2023-07-22T03:42:45;9.93;;;7.33;;
11100;SDS011;5604;50.722;7.078;2023-07-22T03:45:13;8.40;;;7.23;;
11100;SDS011;5604;50.722;7.078;2023-07-22T03:47:43;9.77;;;7.30;;
11100;SDS011;5604;50.722;7.078;2023-07-22T03:50:11;7.67;;;6.97;;
11100;SDS011;5604;50.722;7.078;2023-07-22T03:52:39;10.03;;;7.10;;
11100;SDS011;5604;50.722;7.078;2023-07-22T03:55:08;10.27;;;7.33;;
11100;SDS011;5604;50.722;7.078;2023-07-22T03:57:37;8.47;;;7.07;;
11100;SDS011;5604;50.722;7.078;2023-07-22T04:00:07;9.13;;;7.63;;
11100;SDS011;5604;50.722;7.078;2023-07-22T04:02:40;12.23;;;8.07;;
11100;SDS011;5604;50.722;7.078;2023-07-22T04:05:09;8.93;;;7.20;;
11100;SDS011;5604;50.722;7.078;2023-07-22T04:07:37;12.13;;;7.30;;
11100;SDS011;5604;50.722;7.078;2023-07-22T04:10:06;7.73;;;6.97;;
11100;SDS011;5604;50.722;7.078;2023-07-22T04:12:35;9.57;;;7.30;;
11100;SDS011;5604;50.722;7.078;2023-07-22T04:15:07;8.03;;;6.90;;
11100;SDS011;5604;50.722;7.078;2023-07-22T04:17:36;9.57;;;6.80;;
11100;SDS011;5604;50.722;7.078;2023-07-22T04:20:05;8.67;;;7.77;;
11100;SDS011;5604;50.722;7.078;2023-07-22T04:22:35;8.93;;;7.40;;
11100;SDS011;5604;50.722;7.078;2023-07-22T04:25:03;8.93;;;7.73;;
11100;SDS011;5604;50.722;7.078;2023-07-22T04:27:32;8.33;;;7.43;;
11100;SDS011;5604;50.722;7.078;2023-07-22T04:30:01;8.10;;;7.30;;
11100;SDS011;5604;50.722;7.078;2023-07-22T04:32:31;7.93;;;7.13;;
11100;SDS011;5604;50.722;7.078;2023-07-22T04:35:00;9.17;;;6.83;;
11100;SDS011;5604;50.722;7.078;2023-07-22T04:37:30;8.50;;;7.27;;
11100;SDS011;5604;50.722;7.078;2023-07-22T04:39:58;8.40;;;6.93;;
11100;SDS011;5604;50.722;7.078;2023-07-22T04:42:26;9.73;;;7.37;;
11100;SDS011;5604;50.722;7.078;2023-07-22T04:44:54;8.13;;;6.60;;
11100;SDS011;5604;50.722;7.078;2023-07-22T04:47:22;8.80;;;7.20;;
11100;SDS011;5604;50.722;7.078;2023-07-22T04:49:52;7.67;;;6.97;;
11100;SDS011;5604;50.722;7.078;2023-07-22T04:52:20;8.20;;;6.73;;
11100;SDS011;5604;50.722;7.078;2023-07-22T04:54:48;8.03;;;6.40;;
11100;SDS011;5604;50.722;7.078;2023-07-22T04:57:16;8.17;;;7.03;;
11100;SDS011;5604;50.722;7.078;2023-07-22T04:59:44;10.77;;;6.73;;
11100;SDS011;5604;50.722;7.078;2023-07-22T05:02:12;7.33;;;6.30;;
11100;SDS011;5604;50.722;7.078;2023-07-22T05:04:40;8.10;;;7.20;;
11100;SDS011;5604;50.722;7.078;2023-07-22T05:07:10;7.83;;;6.23;;
11100;SDS011;5604;50.722;7.078;2023-07-22T05:09:38;7.93;;;6.20;;
11100;SDS011;5604;50.722;7.078;2023-07-22T05:12:06;7.37;;;6.30;;
11100;SDS011;5604;50.722;7.078;2023-07-22T05:14:34;8.67;;;6.27;;
11100;SDS011;5604;50.722;7.078;2023-07-22T05:17:02;6.40;;;5.80;;
11100;SDS011;5604;50.722;7.078;2023-07-22T05:19:31;8.27;;;6.50;;
11100;SDS011;5604;50.722;7.078;2023-07-22T05:21:59;8.13;;;6.47;;
11100;SDS011;5604;50.722;7.078;2023-07-22T05:24:28;8.63;;;5.90;;
11100;SDS011;5604;50.722;7.078;2023-07-22T05:26:57;7.93;;;6.33;;
11100;SDS011;5604;50.722;7.078;2023-07-22T05:29:35;8.07;;;6.47;;
11100;SDS011;5604;50.722;7.078;2023-07-22T05:32:03;6.53;;;5.93;;
11100;SDS011;5604;50.722;7.078;2023-07-22T05:34:42;8.10;;;6.00;;
11100;SDS011;5604;50.722;7.078;2023-07-22T05:37:10;6.30;;;5.70;;
11100;SDS011;5604;50.722;7.078;2023-07-22T05:39:40;6.50;;;5.53;;
11100;SDS011;5604;50.722;7.078;2023-07-22T05:42:08;8.50;;;6.00;;
11100;SDS011;5604;50.722;7.078;2023-07-22T05:44:36;6.10;;;5.50;;
11100;SDS011;5604;50.722;7.078;2023-07-22T05:47:04;6.60;;;5.70;;
11100;SDS011;5604;50.722;7.078;2023-07-22T05:49:32;6.77;;;5.70;;
11100;SDS011;5604;50.722;7.078;2023-07-22T05:52:00;7.50;;;5.43;;
11100;SDS011;5604;50.722;7.078;2023-07-22T05:54:28;8.87;;;5.43;;
11100;SDS011;5604;50.722;7.078;2023-07-22T05:56:58;7.50;;;5.30;;
11100;SDS011;5604;50.722;7.078;2023-07-22T05:59:26;5.67;;;4.87;;
11100;SDS011;5604;50.722;7.078;2023-07-22T06:01:54;6.30;;;5.47;;
11100;SDS011;5604;50.722;7.078;2023-07-22T06:04:22;7.43;;;4.43;;
11100;SDS011;5604;50.722;7.078;2023-07-22T06:06:50;5.83;;;5.23;;
11100;SDS011;5604;50.722;7.078;2023-07-22T06:09:18;8.50;;;5.37;;
11100;SDS011;5604;50.722;7.078;2023-07-22T06:11:47;7.13;;;4.93;;
11100;SDS011;5604;50.722;7.078;2023-07-22T06:14:17;8.03;;;5.30;;
11100;SDS011;5604;50.722;7.078;2023-07-22T06:16:45;5.70;;;5.20;;
11100;SDS011;5604;50.722;7.078;2023-07-22T06:19:14;10.07;;;5.30;;
11100;SDS011;5604;50.722;7.078;2023-07-22T06:21:42;6.13;;;4.80;;
11100;SDS011;5604;50.722;7.078;2023-07-22T06:24:10;6.63;;;4.50;;
11100;SDS011;5604;50.722;7.078;2023-07-22T06:26:38;5.47;;;4.97;;
11100;SDS011;5604;50.722;7.078;2023-07-22T06:29:06;5.13;;;4.63;;
11100;SDS011;5604;50.722;7.078;2023-07-22T06:31:36;5.93;;;4.63;;
11100;SDS011;5604;50.722;7.078;2023-07-22T06:34:04;6.37;;;4.73;;
11100;SDS011;5604;50.722;7.078;2023-07-22T06:36:32;5.77;;;5.17;;
11100;SDS011;5604;50.722;7.078;2023-07-22T06:39:00;6.93;;;4.57;;
11100;SDS011;5604;50.722;7.078;2023-07-22T06:41:28;5.73;;;4.90;;
11100;SDS011;5604;50.722;7.078;2023-07-22T06:43:56;7.17;;;4.67;;
11100;SDS011;5604;50.722;7.078;2023-07-22T06:46:24;5.37;;;4.87;;
11100;SDS011;5604;50.722;7.078;2023-07-22T06:48:54;5.93;;;5.43;;
11100;SDS011;5604;50.722;7.078;2023-07-22T06:51:22;6.17;;;5.57;;
11100;SDS011;5604;50.722;7.078;2023-07-22T06:53:50;7.23;;;5.33;;
11100;SDS011;5604;50.722;7.078;2023-07-22T06:56:18;6.63;;;5.20;;
11100;SDS011;5604;50.722;7.078;2023-07-22T06:58:46;5.83;;;5.17;;
11100;SDS011;5604;50.722;7.078;2023-07-22T07:01:15;6.10;;;5.50;;
11100;SDS011;5604;50.722;7.078;2023-07-22T07:03:43;5.80;;;5.00;;
11100;SDS011;5604;50.722;7.078;2023-07-22T07:06:12;5.27;;;4.77;;
11100;SDS011;5604;50.722;7.078;2023-07-22T07:08:40;5.67;;;4.73;;
11100;SDS011;5604;50.722;7.078;2023-07-22T07:11:08;7.23;;;5.27;;
11100;SDS011;5604;50.722;7.078;2023-07-22T07:13:36;6.53;;;5.63;;
11100;SDS011;5604;50.722;7.078;2023-07-22T07:16:20;4.90;;;4.50;;
11100;SDS011;5604;50.722;7.078;2023-07-22T07:18:54;4.40;;;4.00;;
11100;SDS011;5604;50.722;7.078;2023-07-22T07:21:26;4.80;;;4.30;;
11100;SDS011;5604;50.722;7.078;2023-07-22T07:23:54;5.67;;;4.00;;
11100;SDS011;5604;50.722;7.078;2023-07-22T07:26:22;4.97;;;3.97;;
11100;SDS011;5604;50.722;7.078;2023-07-22T07:28:51;4.80;;;4.30;;
11100;SDS011;5604;50.722;7.078;2023-07-22T07:31:19;5.40;;;4.90;;
11100;SDS011;5604;50.722;7.078;2023-07-22T07:33:48;5.10;;;4.50;;
11100;SDS011;5604;50.722;7.078;2023-07-22T07:36:16;5.63;;;4.67;;
11100;SDS011;5604;50.722;7.078;2023-07-22T07:38:46;5.00;;;4.50;;
11100;SDS011;5604;50.722;7.078;2023-07-22T07:41:19;5.63;;;4.70;;
11100;SDS011;5604;50.722;7.078;2023-07-22T07:43:47;4.93;;;4.43;;
11100;SDS011;5604;50.722;7.078;2023-07-22T07:46:16;5.97;;;4.37;;
11100;SDS011;5604;50.722;7.078;2023-07-22T07:48:48;7.27;;;4.90;;
11100;SDS011;5604;50.722;7.078;2023-07-22T07:51:17;5.67;;;4.70;;
11100;SDS011;5604;50.722;7.078;2023-07-22T07:53:48;4.80;;;4.13;;
11100;SDS011;5604;50.722;7.078;2023-07-22T07:56:17;5.13;;;4.67;;
11100;SDS011;5604;50.722;7.078;2023-07-22T07:58:46;5.67;;;5.10;;
11100;SDS011;5604;50.722;7.078;2023-07-22T08:01:15;4.97;;;4.00;;
11100;SDS011;5604;50.722;7.078;2023-07-22T08:03:44;5.87;;;5.00;;
11100;SDS011;5604;50.722;7.078;2023-07-22T08:06:13;4.60;;;4.20;;
11100;SDS011;5604;50.722;7.078;2023-07-22T08:08:45;5.13;;;4.73;;
11100;SDS011;5604;50.722;7.078;2023-07-22T08:11:14;5.23;;;4.27;;
11100;SDS011;5604;50.722;7.078;2023-07-22T08:13:43;6.50;;;4.80;;
11100;SDS011;5604;50.722;7.078;2023-07-22T08:16:12;4.67;;;4.27;;
11100;SDS011;5604;50.722;7.078;2023-07-22T08:18:41;5.47;;;4.97;;
11100;SDS011;5604;50.722;7.078;2023-07-22T08:21:09;7.23;;;5.37;;
11100;SDS011;5604;50.722;7.078;2023-07-22T08:23:38;5.37;;;4.83;;
11100;SDS011;5604;50.722;7.078;2023-07-22T08:26:06;6.20;;;4.30;;
11100;SDS011;5604;50.722;7.078;2023-07-22T08:28:35;5.33;;;4.83;;
11100;SDS011;5604;50.722;7.078;2023-07-22T08:31:03;4.63;;;4.23;;
11100;SDS011;5604;50.722;7.078;2023-07-22T08:33:32;5.00;;;4.50;;
11100;SDS011;5604;50.722;7.078;2023-07-22T08:36:08;5.30;;;4.80;;
11100;SDS011;5604;50.722;7.078;2023-07-22T08:38:36;4.53;;;4.13;;
11100;SDS011;5604;50.722;7.078;2023-07-22T08:41:04;4.50;;;4.10;;
11100;SDS011;5604;50.722;7.078;2023-07-22T08:43:33;4.20;;;3.90;;
11100;SDS011;5604;50.722;7.078;2023-07-22T08:46:05;4.70;;;4.10;;
11100;SDS011;5604;50.722;7.078;2023-07-22T08:48:34;4.37;;;3.97;;
11100;SDS011;5604;50.722;7.078;2023-07-22T08:51:07;3.97;;;3.50;;
11100;SDS011;5604;50.722;7.078;2023-07-22T08:53:38;3.77;;;3.37;;
11100;SDS011;5604;50.722;7.078;2023-07-22T08:56:07;4.90;;;3.67;;
11100;SDS011;5604;50.722;7.078;2023-07-22T08:58:36;3.90;;;3.60;;
11100;SDS011;5604;50.722;7.078;2023-07-22T09:01:05;3.50;;;3.20;;
11100;SDS011;5604;50.722;7.078;2023-07-22T09:03:34;5.63;;;3.20;;
11100;SDS011;5604;50.722;7.078;2023-07-22T09:06:03;4.43;;;4.03;;
11100;SDS011;5604;50.722;7.078;2023-07-22T09:08:33;4.97;;;3.53;;
11100;SDS011;5604;50.722;7.078;2023-07-22T09:11:01;3.73;;;3.43;;
11100;SDS011;5604;50.722;7.078;2023-07-22T09:13:29;3.33;;;3.03;;
11100;SDS011;5604;50.722;7.078;2023-07-22T09:15:59;4.90;;;3.30;;
11100;SDS011;5604;50.722;7.078;2023-07-22T09:18:28;4.47;;;3.63;;
11100;SDS011;5604;50.722;7.078;2023-07-22T09:20:56;3.53;;;3.23;;
11100;SDS011;5604;50.722;7.078;2023-07-22T09:23:34;7.57;;;3.73;;
11100;SDS011;5604;50.722;7.078;2023-07-22T09:26:09;3.97;;;3.30;;
11100;SDS011;5604;50.722;7.078;2023-07-22T09:28:51;3.80;;;3.43;;
11100;SDS011;5604;50.722;7.078;2023-07-22T09:31:21;6.40;;;4.07;;
11100;SDS011;5604;50.722;7.078;2023-07-22T09:33:50;3.90;;;3.60;;
11100;SDS011;5604;50.722;7.078;2023-07-22T09:36:20;4.20;;;3.73;;
11100;SDS011;5604;50.722;7.078;2023-07-22T09:38:58;4.00;;;3.40;;
11100;SDS011;5604;50.722;7.078;2023-07-22T09:41:30;3.40;;;3.13;;
11100;SDS011;5604;50.722;7.078;2023-07-22T09:44:01;3.80;;;3.50;;
11100;SDS011;5604;50.722;7.078;2023-07-22T09:46:32;5.27;;;2.87;;
11100;SDS011;5604;50.722;7.078;2023-07-22T09:49:02;3.30;;;3.00;;
11100;SDS011;5604;50.722;7.078;2023-07-22T09:51:33;4.30;;;3.00;;
11100;SDS011;5604;50.722;7.078;2023-07-22T09:54:08;2.73;;;2.53;;
11100;SDS011;5604;50.722;7.078;2023-07-22T09:56:43;3.40;;;3.10;;
11100;SDS011;5604;50.722;7.078;2023-07-22T09:59:13;4.20;;;2.83;;
11100;SDS011;5604;50.722;7.078;2023-07-22T10:01:43;3.93;;;2.83;;
11100;SDS011;5604;50.722;7.078;2023-07-22T10:04:13;3.60;;;2.77;;
11100;SDS011;5604;50.722;7.078;2023-07-22T10:06:43;3.13;;;2.80;;
11100;SDS011;5604;50.722;7.078;2023-07-22T10:09:12;3.27;;;2.97;;
11100;SDS011;5604;50.722;7.078;2023-07-22T10:11:40;2.80;;;2.60;;
11100;SDS011;5604;50.722;7.078;2023-07-22T10:14:09;2.97;;;2.77;;
11100;SDS011;5604;50.722;7.078;2023-07-22T10:16:39;3.20;;;2.97;;
11100;SDS011;5604;50.722;7.078;2023-07-22T10:19:09;3.90;;;2.73;;
11100;SDS011;5604;50.722;7.078;2023-07-22T10:21:38;3.60;;;3.30;;
11100;SDS011;5604;50.722;7.078;2023-07-22T10:24:06;3.20;;;2.90;;
11100;SDS011;5604;50.722;7.078;2023-07-22T10:26:35;2.90;;;2.63;;
11100;SDS011;5604;50.722;7.078;2023-07-22T10:29:13;2.93;;;2.50;;
11100;SDS011;5604;50.722;7.078;2023-07-22T10:31:41;3.03;;;2.60;;
11100;SDS011;5604;50.722;7.078;2023-07-22T10:34:10;2.30;;;2.10;;
11100;SDS011;5604;50.722;7.078;2023-07-22T10:36:38;2.80;;;1.90;;
11100;SDS011;5604;50.722;7.078;2023-07-22T10:39:07;2.17;;;2.00;;
11100;SDS011;5604;50.722;7.078;2023-07-22T10:41:37;2.80;;;1.80;;
11100;SDS011;5604;50.722;7.078;2023-07-22T10:44:06;2.00;;;1.90;;
11100;SDS011;5604;50.722;7.078;2023-07-22T10:46:39;2.07;;;1.57;;
11100;SDS011;5604;50.722;7.078;2023-07-22T10:49:12;1.53;;;1.40;;
11100;SDS011;5604;50.722;7.078;2023-07-22T10:51:40;2.37;;;1.30;;
11100;SDS011;5604;50.722;7.078;2023-07-22T10:54:11;1.63;;;1.40;;
11100;SDS011;5604;50.722;7.078;2023-07-22T10:56:40;2.23;;;1.57;;
11100;SDS011;5604;50.722;7.078;2023-07-22T10:59:09;5.10;;;1.50;;
11100;SDS011;5604;50.722;7.078;2023-07-22T11:01:39;2.00;;;1.80;;
11100;SDS011;5604;50.722;7.078;2023-07-22T11:04:12;1.70;;;1.60;;
11100;SDS011;5604;50.722;7.078;2023-07-22T11:06:52;1.90;;;1.60;;
11100;SDS011;5604;50.722;7.078;2023-07-22T11:09:38;1.70;;;1.60;;
11100;SDS011;5604;50.722;7.078;2023-07-22T11:12:08;1.80;;;1.70;;
11100;SDS011;5604;50.722;7.078;2023-07-22T11:14:39;1.60;;;1.50;;
11100;SDS011;5604;50.722;7.078;2023-07-22T11:17:09;1.53;;;1.43;;
11100;SDS011;5604;50.722;7.078;2023-07-22T11:19:39;1.73;;;1.63;;
11100;SDS011;5604;50.722;7.078;2023-07-22T11:22:07;1.70;;;1.60;;
11100;SDS011;5604;50.722;7.078;2023-07-22T11:24:35;2.07;;;1.90;;
11100;SDS011;5604;50.722;7.078;2023-07-22T11:27:04;2.03;;;1.90;;
11100;SDS011;5604;50.722;7.078;2023-07-22T11:29:34;2.00;;;1.90;;
11100;SDS011;5604;50.722;7.078;2023-07-22T11:32:03;2.17;;;1.77;;
11100;SDS011;5604;50.722;7.078;2023-07-22T11:34:32;1.80;;;1.70;;
11100;SDS011;5604;50.722;7.078;2023-07-22T11:37:02;2.37;;;2.10;;
11100;SDS011;5604;50.722;7.078;2023-07-22T11:39:32;3.27;;;2.77;;
11100;SDS011;5604;50.722;7.078;2023-07-22T11:42:02;1.97;;;1.87;;
11100;SDS011;5604;50.722;7.078;2023-07-22T11:44:31;2.80;;;1.80;;
11100;SDS011;5604;50.722;7.078;2023-07-22T11:46:59;1.60;;;1.50;;
11100;SDS011;5604;50.722;7.078;2023-07-22T11:49:30;2.20;;;2.00;;
11100;SDS011;5604;50.722;7.078;2023-07-22T11:51:59;2.40;;;2.20;;
11100;SDS011;5604;50.722;7.078;2023-07-22T11:54:29;1.70;;;1.60;;
11100;SDS011;5604;50.722;7.078;2023-07-22T11:57:09;2.10;;;1.90;;
11100;SDS011;5604;50.722;7.078;2023-07-22T11:59:38;2.07;;;1.90;;
11100;SDS011;5604;50.722;7.078;2023-07-22T12:02:11;2.10;;;1.90;;
11100;SDS011;5604;50.722;7.078;2023-07-22T12:04:40;1.93;;;1.80;;
11100;SDS011;5604;50.722;7.078;2023-07-22T12:07:20;3.10;;;1.87;;
11100;SDS011;5604;50.722;7.078;2023-07-22T12:09:51;2.03;;;1.80;;
11100;SDS011;5604;50.722;7.078;2023-07-22T12:12:19;3.23;;;2.10;;
11100;SDS011;5604;50.722;7.078;2023-07-22T12:14:47;1.80;;;1.70;;
11100;SDS011;5604;50.722;7.078;2023-07-22T12:17:15;3.43;;;2.00;;
11100;SDS011;5604;50.722;7.078;2023-07-22T12:19:50;2.63;;;2.43;;
11100;SDS011;5604;50.722;7.078;2023-07-22T12:22:19;2.30;;;2.10;;
11100;SDS011;5604;50.722;7.078;2023-07-22T12:24:47;2.17;;;2.03;;
11100;SDS011;5604;50.722;7.078;2023-07-22T12:27:17;2.83;;;2.20;;
11100;SDS011;5604;50.722;7.078;2023-07-22T12:29:45;1.90;;;1.80;;
11100;SDS011;5604;50.722;7.078;2023-07-22T12:32:13;2.30;;;2.10;;
11100;SDS011;5604;50.722;7.078;2023-07-22T12:34:41;4.07;;;2.40;;
11100;SDS011;5604;50.722;7.078;2023-07-22T12:37:09;2.50;;;2.30;;
11100;SDS011;5604;50.722;7.078;2023-07-22T12:39:37;4.07;;;2.60;;
11100;SDS011;5604;50.722;7.078;2023-07-22T12:42:05;4.70;;;4.30;;
11100;SDS011;5604;50.722;7.078;2023-07-22T12:44:36;9.23;;;7.37;;
11100;SDS011;5604;50.722;7.078;2023-07-22T12:47:04;5.23;;;4.73;;
11100;SDS011;5604;50.722;7.078;2023-07-22T12:49:33;2.90;;;2.57;;
11100;SDS011;5604;50.722;7.078;2023-07-22T12:52:01;4.23;;;2.40;;
11100;SDS011;5604;50.722;7.078;2023-07-22T12:54:31;2.73;;;2.53;;
11100;SDS011;5604;50.722;7.078;2023-07-22T12:56:59;2.80;;;2.60;;
11100;SDS011;5604;50.722;7.078;2023-07-22T12:59:27;2.73;;;2.40;;
11100;SDS011;5604;50.722;7.078;2023-07-22T13:01:56;2.50;;;2.30;;
11100;SDS011;5604;50.722;7.078;2023-07-22T13:04:25;2.97;;;2.37;;
11100;SDS011;5604;50.722;7.078;2023-07-22T13:06:53;2.73;;;2.53;;
11100;SDS011;5604;50.722;7.078;2023-07-22T13:09:21;2.70;;;2.50;;
11100;SDS011;5604;50.722;7.078;2023-07-22T13:11:49;2.73;;;2.53;;
11100;SDS011;5604;50.722;7.078;2023-07-22T13:14:17;4.47;;;4.03;;
11100;SDS011;5604;50.722;7.078;2023-07-22T13:16:45;4.50;;;2.60;;
11100;SDS011;5604;50.722;7.078;2023-07-22T13:19:14;2.90;;;2.70;;
11100;SDS011;5604;50.722;7.078;2023-07-22T13:21:42;3.53;;;2.53;;
11100;SDS011;5604;50.722;7.078;2023-07-22T13:24:10;4.20;;;3.03;;
11100;SDS011;5604;50.722;7.078;2023-07-22T13:26:38;3.17;;;2.87;;
11100;SDS011;5604;50.722;7.078;2023-07-22T13:29:06;3.73;;;2.73;;
11100;SDS011;5604;50.722;7.078;2023-07-22T13:31:36;3.10;;;2.80;;
11100;SDS011;5604;50.722;7.078;2023-07-22T13:34:04;3.40;;;2.50;;
11100;SDS011;5604;50.722;7.078;2023-07-22T13:36:33;2.70;;;2.50;;
11100;SDS011;5604;50.722;7.078;2023-07-22T13:39:01;2.83;;;2.60;;
11100;SDS011;5604;50.722;7.078;2023-07-22T13:41:29;21.07;;;18.23;;
11100;SDS011;5604;50.722;7.078;2023-07-22T13:43:57;3.50;;;3.20;;
11100;SDS011;5604;50.722;7.078;2023-07-22T13:46:25;12.87;;;9.93;;
11100;SDS011;5604;50.722;7.078;2023-07-22T13:48:53;5.57;;;4.93;;
11100;SDS011;5604;50.722;7.078;2023-07-22T13:51:21;6.70;;;6.00;;
11100;SDS011;5604;50.722;7.078;2023-07-22T13:53:51;4.90;;;4.30;;
11100;SDS011;5604;50.722;7.078;2023-07-22T13:56:21;4.33;;;2.87;;
11100;SDS011;5604;50.722;7.078;2023-07-22T13:58:49;3.53;;;3.23;;
11100;SDS011;5604;50.722;7.078;2023-07-22T14:01:17;3.60;;;2.60;;
11100;SDS011;5604;50.722;7.078;2023-07-22T14:03:45;3.63;;;2.97;;
11100;SDS011;5604;50.722;7.078;2023-07-22T14:06:13;4.80;;;2.80;;
11100;SDS011;5604;50.722;7.078;2023-07-22T14:08:41;4.30;;;2.60;;
11100;SDS011;5604;50.722;7.078;2023-07-22T14:11:11;4.00;;;2.70;;
11100;SDS011;5604;50.722;7.078;2023-07-22T14:13:39;4.27;;;2.80;;
11100;SDS011;5604;50.722;7.078;2023-07-22T14:16:07;3.20;;;2.63;;
11100;SDS011;5604;50.722;7.078;2023-07-22T14:18:48;2.87;;;2.67;;
11100;SDS011;5604;50.722;7.078;2023-07-22T14:21:18;2.97;;;2.73;;
11100;SDS011;5604;50.722;7.078;2023-07-22T14:23:46;3.53;;;2.83;;
11100;SDS011;5604;50.722;7.078;2023-07-22T14:26:16;3.00;;;2.70;;
11100;SDS011;5604;50.722;7.078;2023-07-22T14:28:44;3.30;;;2.80;;
11100;SDS011;5604;50.722;7.078;2023-07-22T14:31:12;3.83;;;2.93;;
11100;SDS011;5604;50.722;7.078;2023-07-22T14:33:40;2.90;;;2.60;;
11100;SDS011;5604;50.722;7.078;2023-07-22T14:36:08;4.03;;;3.00;;
11100;SDS011;5604;50.722;7.078;2023-07-22T14:38:36;3.17;;;2.87;;
11100;SDS011;5604;50.722;7.078;2023-07-22T14:41:04;3.20;;;2.90;;
11100;SDS011;5604;50.722;7.078;2023-07-22T14:43:34;4.43;;;3.20;;
11100;SDS011;5604;50.722;7.078;2023-07-22T14:46:02;3.60;;;3.30;;
11100;SDS011;5604;50.722;7.078;2023-07-22T14:48:30;3.83;;;3.00;;
11100;SDS011;5604;50.722;7.078;2023-07-22T14:50:58;3.73;;;2.90;;
11100;SDS011;5604;50.722;7.078;2023-07-22T14:53:26;5.30;;;3.20;;
11100;SDS011;5604;50.722;7.078;2023-07-22T14:55:55;5.53;;;3.53;;
11100;SDS011;5604;50.722;7.078;2023-07-22T14:58:23;3.93;;;3.13;;
11100;SDS011;5604;50.722;7.078;2023-07-22T15:00:52;3.20;;;2.90;;
11100;SDS011;5604;50.722;7.078;2023-07-22T15:03:20;3.30;;;3.00;;
11100;SDS011;5604;50.722;7.078;2023-07-22T15:05:48;5.23;;;3.07;;
11100;SDS011;5604;50.722;7.078;2023-07-22T15:08:16;3.70;;;3.40;;
11100;SDS011;5604;50.722;7.078;2023-07-22T15:10:45;3.90;;;3.33;;
11100;SDS011;5604;50.722;7.078;2023-07-22T15:13:13;3.70;;;3.00;;